Main page
METAR-TAF:

METAR-TAF

Airports :

Shannon Airport

Shannon, Ireland

latitude: 52-42N, longitude: 008-55W, elevation: 14 m

Current weather observation

The report was made 27 minutes ago, at 17:00 UTC
Wind 8 kt from the West
Temperature 10°C
Humidity 76%
Pressure 1020 hPa
Visibility 10 km or more
Few clouds at a height of 2800 ft
Scattered clouds at a height of 4800 ft

METAR: EINN 211700Z 26008KT 9999 FEW028 SCT048 10/06 Q1020 NOSIG

Time: 18:27 (17:27 UTC)

Forecast

The report was made 6 hours and 27 minutes ago, at 11:00 UTC
Forecast valid from 21 at 12 UTC to 22 at 12 UTC
Wind 13 kt from the Northwest
Visibility 10 km or more
Few clouds at a height of 2500 ft
Becoming
from 21 at 17 UTC to 21 at 19 UTC
Wind 7 kt from the West
Becoming
from 21 at 22 UTC to 21 at 24 UTC
Wind 10 kt from the West/Northwest
Becoming
from 22 at 09 UTC to 22 at 11 UTC
Wind 8 kt from the West

TAF: EINN 211100Z 2112/2212 32013KT 9999 FEW025 BECMG 2117/2119 26007KT BECMG 2122/2124 29010KT BECMG 2209/2211 26008KT

Weather observations and forecasts of more than 4000 airports (METAR and TAF reports).

The available stations are represented by yellow and red dots on the map.

Hover mouse over dot to see the name of the station.

Then click to see weather observations and forecasts.

To change the map : click on the green buttons with a black cross to zoom in, on the green button with a dash to zoom out, or on the green arrows for adjacent maps.


METAR-TAF: